createdAt,value
2022-11-08T00:02:04.733Z,100084.84
2022-11-08T00:04:34.687Z,100071.28
2022-11-08T00:07:13.088Z,100076.38
2022-11-08T00:09:51.467Z,100079.66
2022-11-08T00:12:29.777Z,100079.69
2022-11-08T00:14:59.966Z,100080.66
2022-11-08T00:17:29.423Z,100078.16
2022-11-08T00:19:57.946Z,100073.91
2022-11-08T00:22:26.367Z,100082.41
2022-11-08T00:24:54.658Z,100078.16
2022-11-08T00:27:24.338Z,100079.13
2022-11-08T00:29:52.810Z,100084.19
2022-11-08T00:32:23.887Z,100083.22
2022-11-08T00:34:52.385Z,100079.91
2022-11-08T00:37:21.447Z,100085.81
2022-11-08T00:39:50.311Z,100079.91
2022-11-08T00:42:18.607Z,100082.44
2022-11-08T00:44:46.930Z,100084.09
2022-11-08T00:47:15.255Z,100077.25
2022-11-08T00:49:45.055Z,100081.44
2022-11-08T00:52:13.565Z,100083.84
2022-11-08T00:54:41.955Z,100083.78
2022-11-08T00:57:10.478Z,100077.81
2022-11-08T00:59:39.225Z,100077.78
2022-11-08T01:02:07.766Z,100080.34
2022-11-08T01:04:36.236Z,100066.88
2022-11-08T01:07:06.460Z,100066.81
2022-11-08T01:09:34.856Z,100060.00
2022-11-08T01:12:03.093Z,100068.25
2022-11-08T01:14:32.226Z,100062.97
2022-11-08T01:17:00.550Z,100069.47
2022-11-08T01:19:28.976Z,100068.66
2022-11-08T01:21:57.397Z,100071.22
2022-11-08T01:24:27.286Z,100068.72
2022-11-08T01:26:55.676Z,100067.88
2022-11-08T01:29:24.428Z,100067.03
2022-11-08T01:31:52.807Z,100074.53
2022-11-08T01:34:21.217Z,100066.03
2022-11-08T01:36:49.898Z,100064.41
2022-11-08T01:39:18.238Z,100063.47
2022-11-08T01:41:47.907Z,100064.94
2022-11-08T01:44:18.297Z,100056.47
2022-11-08T01:46:47.093Z,100056.34
2022-11-08T01:49:33.440Z,100050.47
2022-11-08T01:52:05.817Z,100060.59
2022-11-08T01:54:36.542Z,100045.44
2022-11-08T01:57:08.618Z,100047.13
2022-11-08T01:59:40.026Z,100052.28
2022-11-08T02:02:10.153Z,100052.31
2022-11-08T02:04:39.118Z,100049.00
2022-11-08T02:07:09.205Z,100051.63
2022-11-08T02:09:38.857Z,100049.91
2022-11-08T02:12:10.275Z,100045.66
2022-11-08T02:14:39.636Z,100047.13
2022-11-08T02:17:09.956Z,100042.06
2022-11-08T02:19:41.530Z,100042.06
2022-11-08T02:22:17.169Z,100037.84
2022-11-08T02:24:47.340Z,100037.00
2022-11-08T02:27:16.159Z,100042.06
2022-11-08T02:29:44.467Z,100037.00
2022-11-08T02:32:12.979Z,100027.50
2022-11-08T02:34:43.926Z,100040.16
2022-11-08T02:37:13.380Z,100031.03
2022-11-08T02:39:43.501Z,100030.06
2022-11-08T02:42:15.768Z,100031.47
2022-11-08T02:44:44.177Z,100034.75
2022-11-08T02:47:12.675Z,100028.84
2022-11-08T02:49:41.059Z,100026.31
2022-11-08T02:52:09.387Z,100020.47
2022-11-08T02:54:38.107Z,100012.88
2022-11-08T02:57:06.377Z,100010.97
2022-11-08T02:59:36.199Z,100017.63
2022-11-08T03:02:04.529Z,100018.50
2022-11-08T03:04:33.238Z,100025.31
2022-11-08T03:07:01.482Z,100016.03
2022-11-08T03:09:29.759Z,100024.50
2022-11-08T03:11:58.059Z,100029.56
2022-11-08T03:14:26.389Z,100016.59
2022-11-08T03:16:56.657Z,100020.66
2022-11-08T03:19:25.045Z,100024.06
2022-11-08T03:21:54.740Z,100024.06
2022-11-08T03:24:23.355Z,100026.59
2022-11-08T03:26:52.345Z,100030.75
2022-11-08T03:29:20.816Z,100024.75
2022-11-08T03:31:49.107Z,100025.16
2022-11-08T03:34:18.878Z,100026.88
2022-11-08T03:36:47.218Z,100019.66
2022-11-08T03:39:15.588Z,100027.34
2022-11-08T03:41:44.069Z,100020.19
2022-11-08T03:44:12.464Z,100019.81
2022-11-08T03:46:40.868Z,100022.19
2022-11-08T03:49:09.207Z,100020.44
2022-11-08T03:51:38.980Z,100016.13
2022-11-08T03:54:07.326Z,100015.88
2022-11-08T03:56:36.068Z,100023.97
2022-11-08T03:59:04.197Z,100026.38
2022-11-08T04:01:32.608Z,100030.53
2022-11-08T04:04:01.119Z,100029.69
2022-11-08T04:06:30.207Z,100025.66
2022-11-08T04:09:00.578Z,100029.56
2022-11-08T04:11:39.315Z,100031.16
2022-11-08T04:14:17.379Z,100032.69
2022-11-08T04:16:45.849Z,100025.84
2022-11-08T04:19:24.185Z,100029.94
2022-11-08T04:21:53.859Z,100033.28
2022-11-08T04:24:23.557Z,100026.31
2022-11-08T04:26:51.946Z,100023.94
2022-11-08T04:29:20.719Z,100023.47
2022-11-08T04:31:48.977Z,100019.31
2022-11-08T04:34:17.314Z,100020.78
2022-11-08T04:36:45.699Z,100016.63
2022-11-08T04:39:13.988Z,100013.09
2022-11-08T04:41:43.725Z,100018.06
2022-11-08T04:44:12.088Z,100018.25
2022-11-08T04:46:40.392Z,100027.78
2022-11-08T04:49:09.455Z,100022.13
2022-11-08T04:51:37.734Z,100019.81
2022-11-08T04:54:08.090Z,100015.66
2022-11-08T04:56:36.379Z,100023.47
2022-11-08T04:59:10.819Z,100016.63
2022-11-08T05:01:40.330Z,100018.41
2022-11-08T05:04:08.712Z,100011.84
2022-11-08T05:06:37.225Z,100021.06
2022-11-08T05:09:05.556Z,100013.28
2022-11-08T05:11:34.394Z,100020.84
2022-11-08T05:14:02.830Z,100013.28
2022-11-08T05:16:33.237Z,100019.44
2022-11-08T05:19:02.160Z,100015.81
2022-11-08T05:21:40.779Z,100015.81
2022-11-08T05:24:10.208Z,100013.34
2022-11-08T05:26:39.338Z,100011.44
2022-11-08T05:29:07.630Z,100008.16
2022-11-08T05:31:37.395Z,100015.72
2022-11-08T05:34:07.702Z,100022.09
2022-11-08T05:36:35.934Z,100025.50
2022-11-08T05:39:04.446Z,100027.22
2022-11-08T05:41:32.723Z,100030.34
2022-11-08T05:44:01.052Z,100031.16
2022-11-08T05:46:29.413Z,100027.63
2022-11-08T05:48:59.681Z,100029.88
2022-11-08T05:51:27.998Z,100031.69
2022-11-08T05:53:56.337Z,100031.84
2022-11-08T05:56:24.683Z,100028.63
2022-11-08T05:58:52.959Z,100025.41
2022-11-08T06:01:21.906Z,100028.53
2022-11-08T06:03:50.111Z,100034.44
2022-11-08T06:06:20.929Z,100036.41
2022-11-08T06:08:51.468Z,100038.84
2022-11-08T06:11:22.748Z,100030.56
2022-11-08T06:13:51.690Z,100029.84
2022-11-08T06:16:20.558Z,100037.72
2022-11-08T06:18:48.926Z,100036.78
2022-11-08T06:21:17.959Z,100024.00
2022-11-08T06:23:47.906Z,100039.94
2022-11-08T06:26:16.159Z,100043.44
2022-11-08T06:28:44.538Z,100041.47
2022-11-08T06:31:12.797Z,100043.94
2022-11-08T06:33:41.204Z,100046.34
2022-11-08T06:36:09.508Z,100048.44
2022-11-08T06:38:37.783Z,100040.03
2022-11-08T06:41:07.497Z,100045.66
2022-11-08T06:43:35.854Z,100040.25
2022-11-08T06:46:04.139Z,100042.91
2022-11-08T06:48:35.885Z,100053.34
2022-11-08T06:51:05.300Z,100051.25
2022-11-08T06:53:33.787Z,100057.47
2022-11-08T06:56:01.980Z,100056.53
2022-11-08T06:58:32.480Z,100061.84
2022-11-08T07:01:03.877Z,100059.09
2022-11-08T07:03:33.062Z,100062.88
2022-11-08T07:06:02.741Z,100055.59
2022-11-08T07:08:31.698Z,100060.94
2022-11-08T07:11:00.507Z,100067.25
2022-11-08T07:13:28.858Z,100070.16
2022-11-08T07:16:00.488Z,100056.88
2022-11-08T07:18:29.444Z,100060.66
2022-11-08T07:21:03.402Z,100056.84
2022-11-08T07:23:31.999Z,100058.06
2022-11-08T07:26:01.859Z,100061.66
2022-11-08T07:28:30.219Z,100064.44
2022-11-08T07:31:01.159Z,100063.81
2022-11-08T07:33:29.745Z,100068.19
2022-11-08T07:35:58.097Z,100070.97
2022-11-08T07:38:26.627Z,100077.91
2022-11-08T07:40:57.289Z,100070.47
2022-11-08T07:43:26.191Z,100069.78
2022-11-08T07:46:02.818Z,100066.59
2022-11-08T07:48:32.051Z,100073.56
2022-11-08T07:51:00.309Z,100069.63
2022-11-08T07:53:28.648Z,100065.47
2022-11-08T07:55:58.559Z,100074.16
2022-11-08T07:58:26.985Z,100058.97
2022-11-08T08:00:55.244Z,100064.13
2022-11-08T08:03:25.021Z,100059.25
2022-11-08T08:05:59.691Z,100061.81
2022-11-08T08:08:29.532Z,100070.41
2022-11-08T08:10:58.484Z,100055.34
2022-11-08T08:13:26.922Z,100052.91
2022-11-08T08:15:58.234Z,100057.31
2022-11-08T08:18:28.242Z,100054.91
2022-11-08T08:20:56.934Z,100050.00
2022-11-08T08:23:25.210Z,100056.13
2022-11-08T08:25:53.561Z,100049.50
2022-11-08T08:28:21.802Z,100046.19
2022-11-08T08:30:50.061Z,100047.22
2022-11-08T08:33:34.983Z,100043.03
2022-11-08T08:36:06.150Z,100042.25
2022-11-08T08:38:37.653Z,100042.34
2022-11-08T08:41:08.551Z,100032.31
2022-11-08T08:43:36.941Z,100034.03
2022-11-08T08:46:06.930Z,100038.38
2022-11-08T08:48:35.905Z,100031.75
2022-11-08T08:51:05.931Z,100020.72
2022-11-08T08:53:34.214Z,100035.19
2022-11-08T08:56:05.349Z,100030.09
2022-11-08T08:58:33.657Z,100036.13
2022-11-08T09:03:51.420Z,100037.03
2022-11-08T09:06:21.170Z,100042.97
2022-11-08T09:08:50.024Z,100032.81
2022-11-08T09:11:18.266Z,100039.63
2022-11-08T09:13:46.961Z,100043.91
2022-11-08T09:16:15.281Z,100044.81
2022-11-08T09:18:43.669Z,100038.06
2022-11-08T09:21:11.949Z,100039.00
2022-11-08T09:23:42.491Z,100047.56
2022-11-08T09:26:11.771Z,100045.03
2022-11-08T09:28:39.990Z,100043.34
2022-11-08T09:31:09.321Z,100040.78
2022-11-08T09:33:38.042Z,100046.78
2022-11-08T09:36:07.046Z,100045.13
2022-11-08T09:38:35.683Z,100042.56
2022-11-08T09:41:15.206Z,100042.56
2022-11-08T09:43:58.833Z,100041.69
2022-11-08T09:46:32.536Z,100040.00
2022-11-08T09:49:02.675Z,100034.84
2022-11-08T09:51:32.952Z,100029.72
2022-11-08T09:54:01.701Z,100030.53
2022-11-08T09:56:31.297Z,100026.28
2022-11-08T09:59:02.527Z,100020.28
2022-11-08T10:01:33.769Z,100021.03
2022-11-08T10:04:04.617Z,100017.47
2022-11-08T10:06:43.716Z,100022.53
2022-11-08T10:09:24.002Z,100026.75
2022-11-08T10:12:02.011Z,100027.56
2022-11-08T10:14:48.096Z,100024.03
2022-11-08T10:17:31.586Z,100020.53
2022-11-08T10:20:07.464Z,100021.41
2022-11-08T10:22:44.003Z,100016.19
2022-11-08T10:25:19.101Z,100001.47
2022-11-08T10:27:47.734Z,100006.56
2022-11-08T10:30:19.826Z,100005.56
2022-11-08T10:32:50.218Z,100001.19
2022-11-08T10:35:23.255Z,100004.66
2022-11-08T10:37:53.259Z,99999.41
2022-11-08T10:40:26.577Z,99999.25
2022-11-08T10:42:57.964Z,99992.31
2022-11-08T10:45:26.205Z,99988.88
2022-11-08T10:47:54.586Z,99983.72
2022-11-08T10:50:32.996Z,99983.56
2022-11-08T10:53:01.746Z,99983.41
2022-11-08T10:55:33.707Z,99984.22
2022-11-08T10:58:02.082Z,99986.72
2022-11-08T11:00:31.258Z,99986.63
2022-11-08T11:03:00.548Z,99980.47
2022-11-08T11:05:34.258Z,99977.75
2022-11-08T11:08:15.054Z,99977.00
2022-11-08T11:10:44.099Z,99977.78
2022-11-08T11:13:13.828Z,99976.75
2022-11-08T11:15:47.099Z,99969.81
2022-11-08T11:18:20.897Z,99964.69
2022-11-08T11:21:00.778Z,99965.50
2022-11-08T11:23:34.094Z,99967.09
2022-11-08T11:26:02.748Z,99959.47
2022-11-08T11:28:31.176Z,99960.28
2022-11-08T11:31:03.221Z,99955.06
2022-11-08T11:33:33.808Z,99960.97
2022-11-08T11:36:12.264Z,99953.06
2022-11-08T11:38:45.525Z,99956.44
2022-11-08T11:41:16.227Z,99947.91
2022-11-08T11:43:48.820Z,99957.09
2022-11-08T11:46:22.028Z,99954.53
2022-11-08T11:48:53.665Z,99956.03
2022-11-08T11:51:24.456Z,99941.38
2022-11-08T11:53:52.788Z,99934.44
2022-11-08T11:56:31.855Z,99927.53
2022-11-08T11:59:15.645Z,99929.91
2022-11-08T12:01:52.718Z,99922.09
2022-11-08T12:04:30.698Z,99917.75
2022-11-08T12:07:05.448Z,99917.56
2022-11-08T12:09:43.909Z,99907.31
2022-11-08T12:12:19.265Z,99902.22
2022-11-08T12:14:56.288Z,99902.34
2022-11-08T12:17:32.906Z,99899.97
2022-11-08T12:20:08.095Z,99901.00
2022-11-08T12:22:49.960Z,99897.56
2022-11-08T12:25:21.889Z,99885.44
2022-11-08T12:27:52.958Z,99890.72
2022-11-08T12:30:22.619Z,99882.13
2022-11-08T12:33:01.316Z,99878.66
2022-11-08T12:35:35.772Z,99882.06
2022-11-08T12:38:12.829Z,99872.56
2022-11-08T12:40:46.528Z,99871.59
2022-11-08T12:43:23.170Z,99871.75
2022-11-08T12:45:57.186Z,99871.66
2022-11-08T12:48:33.842Z,99873.22
2022-11-08T12:51:06.788Z,99869.03
2022-11-08T12:53:48.717Z,99876.03
2022-11-08T12:56:20.922Z,99867.50
2022-11-08T12:58:50.792Z,99876.78
2022-11-08T13:01:19.469Z,99868.25
2022-11-08T13:04:04.731Z,99877.69
2022-11-08T13:06:39.958Z,99866.75
2022-11-08T13:09:13.659Z,99874.56
2022-11-08T13:11:45.982Z,99875.56
2022-11-08T13:14:16.133Z,99867.19
2022-11-08T13:16:45.189Z,99864.81
2022-11-08T13:19:24.438Z,99859.94
2022-11-08T13:21:52.719Z,99864.31
2022-11-08T13:24:43.991Z,99855.88
2022-11-08T13:27:24.546Z,99858.47
2022-11-08T13:29:54.709Z,99867.06
2022-11-08T13:32:30.529Z,99873.13
2022-11-08T13:35:03.231Z,99869.72
2022-11-08T13:37:42.581Z,99871.41
2022-11-08T13:40:22.511Z,99865.50
2022-11-08T13:43:15.953Z,99864.91
2022-11-08T13:45:46.153Z,99868.53
2022-11-08T13:48:29.822Z,99854.94
2022-11-08T13:50:59.380Z,99858.63
2022-11-08T13:53:42.400Z,99855.28
2022-11-08T13:56:21.569Z,99858.78
2022-11-08T13:58:49.950Z,99849.44
2022-11-08T14:01:38.447Z,99853.78
2022-11-08T14:04:22.370Z,99857.34
2022-11-08T14:06:58.281Z,99857.41
2022-11-08T14:09:33.566Z,99859.19
2022-11-08T14:12:05.652Z,99850.72
2022-11-08T14:14:45.968Z,99855.03
2022-11-08T14:17:21.679Z,99861.91
2022-11-08T14:19:51.763Z,99854.28
2022-11-08T14:22:23.887Z,99856.97
2022-11-08T14:24:53.505Z,99862.13
2022-11-08T14:27:34.800Z,99858.75
2022-11-08T14:30:03.393Z,99857.97
2022-11-08T14:32:31.691Z,99858.03
2022-11-08T14:35:10.673Z,99865.78
2022-11-08T14:37:43.314Z,99862.44
2022-11-08T14:40:18.151Z,99870.25
2022-11-08T14:42:46.707Z,99868.63
2022-11-08T14:45:16.071Z,99871.22
2022-11-08T14:47:45.080Z,99869.56
2022-11-08T14:50:17.182Z,99868.75
2022-11-08T14:52:47.182Z,99867.13
2022-11-08T14:55:16.737Z,99868.00
2022-11-08T14:57:45.645Z,99856.94
2022-11-08T15:00:19.392Z,99868.94
2022-11-08T15:02:49.709Z,99867.28
2022-11-08T15:05:29.105Z,99870.78
2022-11-08T15:07:59.134Z,99871.66
2022-11-08T15:10:28.191Z,99873.34
2022-11-08T15:12:57.005Z,99866.53
2022-11-08T15:15:27.977Z,99866.56
2022-11-08T15:18:07.723Z,99862.34
2022-11-08T15:20:35.896Z,99857.28
2022-11-08T15:23:22.906Z,99853.91
2022-11-08T15:25:56.294Z,99859.88
2022-11-08T15:28:25.962Z,99853.13
2022-11-08T15:30:57.365Z,99853.19
2022-11-08T15:33:26.415Z,99862.63
2022-11-08T15:35:55.096Z,99858.38
2022-11-08T15:38:34.062Z,99854.13
2022-11-08T15:41:03.822Z,99859.22
2022-11-08T15:43:37.313Z,99860.06
2022-11-08T15:46:06.732Z,99866.03
2022-11-08T15:48:35.310Z,99864.34
2022-11-08T15:51:05.762Z,99863.47
2022-11-08T15:53:36.034Z,99862.63
2022-11-08T15:56:06.070Z,99866.88
2022-11-08T15:58:36.453Z,99878.81
2022-11-08T16:01:05.930Z,99873.69
2022-11-08T16:03:34.920Z,99871.13
2022-11-08T16:06:03.218Z,99869.47
2022-11-08T16:08:31.512Z,99877.97
2022-11-08T16:11:02.035Z,99871.19
2022-11-08T16:13:31.886Z,99878.00
2022-11-08T16:16:01.362Z,99867.78
2022-11-08T16:18:32.605Z,99877.16
2022-11-08T16:21:00.910Z,99876.28
2022-11-08T16:23:29.275Z,99872.03
2022-11-08T16:25:58.271Z,99876.31
2022-11-08T16:28:29.720Z,99879.72
2022-11-08T16:30:58.037Z,99872.91
2022-11-08T16:33:27.203Z,99868.66
2022-11-08T16:35:56.473Z,99878.06
2022-11-08T16:38:27.595Z,99878.06
2022-11-08T16:40:56.305Z,99872.09
2022-11-08T16:43:24.548Z,99876.38
2022-11-08T16:46:09.945Z,99888.31
2022-11-08T16:48:40.236Z,99887.47
2022-11-08T16:51:14.461Z,99894.25
2022-11-08T16:53:42.722Z,99890.84
2022-11-08T16:56:11.094Z,99881.47
2022-11-08T16:58:39.405Z,99891.66
2022-11-08T17:01:13.539Z,99894.22
2022-11-08T17:03:41.875Z,99901.91
2022-11-08T17:06:13.545Z,99893.38
2022-11-08T17:08:41.976Z,99903.56
2022-11-08T17:11:11.071Z,99895.88
2022-11-08T17:13:40.711Z,99900.13
2022-11-08T17:16:12.922Z,99895.88
2022-11-08T17:18:41.663Z,99900.13
2022-11-08T17:21:42.565Z,99903.50
2022-11-08T17:23:59.323Z,99903.47
2022-11-08T17:26:28.123Z,99903.44
2022-11-08T17:28:56.712Z,99910.31
2022-11-08T17:31:26.455Z,99911.19
2022-11-08T17:33:55.355Z,99910.38
2022-11-08T17:36:23.571Z,99898.50
2022-11-08T17:38:51.903Z,99905.31
2022-11-08T17:41:20.243Z,99903.63
2022-11-08T17:43:48.655Z,99917.28
2022-11-08T17:46:16.942Z,99910.44
2022-11-08T17:48:46.862Z,99910.44
2022-11-08T17:51:15.816Z,99913.84
2022-11-08T17:53:44.466Z,99905.34
2022-11-08T17:56:13.262Z,99903.63
2022-11-08T17:58:41.749Z,99899.34
2022-11-08T18:01:10.338Z,99901.91
2022-11-08T18:03:38.850Z,99900.22
2022-11-08T18:06:11.778Z,99900.19
2022-11-08T18:08:40.085Z,99903.63
2022-11-08T18:11:08.369Z,99908.75
2022-11-08T18:13:37.051Z,99905.34
2022-11-08T18:16:09.202Z,99901.94
2022-11-08T18:18:38.076Z,99904.50
2022-11-08T18:21:06.695Z,99907.91
2022-11-08T18:23:36.492Z,99907.91
2022-11-08T18:26:05.266Z,99908.75
2022-11-08T18:28:33.774Z,99912.16
2022-11-08T18:31:06.175Z,99898.50
2022-11-08T18:33:34.674Z,99907.03
2022-11-08T18:36:06.195Z,99903.63
2022-11-08T18:38:35.715Z,99910.44
2022-11-08T18:41:05.511Z,99915.56
2022-11-08T18:43:33.875Z,99916.41
2022-11-08T18:46:06.063Z,99925.75
2022-11-08T18:48:35.787Z,99924.06
2022-11-08T18:51:04.343Z,99922.34
2022-11-08T18:53:33.064Z,99923.22
2022-11-08T18:56:01.559Z,99927.47
2022-11-08T18:58:31.847Z,99928.34
2022-11-08T19:01:00.206Z,99930.88
2022-11-08T19:03:28.915Z,99924.06
2022-11-08T19:05:57.217Z,99917.25
2022-11-08T19:08:27.452Z,99924.06
2022-11-08T19:10:57.097Z,99929.16
2022-11-08T19:13:26.534Z,99930.06
2022-11-08T19:16:00.017Z,99926.63
2022-11-08T19:18:31.203Z,99930.06
2022-11-08T19:21:00.484Z,99928.34
2022-11-08T19:23:28.816Z,99931.75
2022-11-08T19:25:57.978Z,99940.28
2022-11-08T19:28:30.363Z,99933.44
2022-11-08T19:31:03.287Z,99937.69
2022-11-08T19:33:33.015Z,99939.44
2022-11-08T19:36:01.653Z,99942.81
2022-11-08T19:38:29.946Z,99946.22
2022-11-08T19:41:01.955Z,99950.47
2022-11-08T19:43:31.424Z,99948.78
2022-11-08T19:46:06.442Z,99955.59
2022-11-08T19:48:36.913Z,99953.03
2022-11-08T19:51:06.732Z,99953.88
2022-11-08T19:53:36.116Z,99960.72
2022-11-08T19:56:05.932Z,99951.34
2022-11-08T19:58:35.125Z,99958.16
2022-11-08T20:01:09.574Z,99959.00
2022-11-08T20:03:38.474Z,99975.16
2022-11-08T20:06:07.479Z,99970.94
2022-11-08T20:08:37.001Z,99969.22
2022-11-08T20:11:11.564Z,99970.91
2022-11-08T20:13:40.396Z,99971.78
2022-11-08T20:16:14.673Z,99966.66
2022-11-08T20:18:43.281Z,99979.44
2022-11-08T20:21:12.621Z,99973.47
2022-11-08T20:23:42.923Z,99970.94
2022-11-08T20:26:14.192Z,99974.34
2022-11-08T20:28:55.268Z,99969.22
2022-11-08T20:31:26.677Z,99978.56
2022-11-08T20:33:55.494Z,99985.38
2022-11-08T20:36:25.042Z,99980.31
2022-11-08T20:38:56.101Z,99985.41
2022-11-08T20:41:24.833Z,99985.41
2022-11-08T20:43:53.183Z,99987.09
2022-11-08T20:46:23.404Z,99982.00
2022-11-08T20:49:00.143Z,99972.63
2022-11-08T20:51:30.757Z,99981.13
2022-11-08T20:54:00.292Z,99989.66
2022-11-08T20:56:29.152Z,99985.38
2022-11-08T20:58:57.740Z,99987.09
2022-11-08T21:01:27.340Z,99980.28
2022-11-08T21:03:57.557Z,99981.13
2022-11-08T21:06:27.053Z,99987.91
2022-11-08T21:09:02.724Z,99995.59
2022-11-08T21:11:37.265Z,99987.94
2022-11-08T21:14:06.116Z,99983.69
2022-11-08T21:16:59.370Z,99988.81
2022-11-08T21:19:26.377Z,99981.97
2022-11-08T21:22:14.865Z,99978.59
2022-11-08T21:24:43.533Z,99971.78
2022-11-08T21:27:12.155Z,99967.53
2022-11-08T21:29:40.578Z,99968.34
2022-11-08T21:32:08.961Z,99970.06
2022-11-08T21:34:46.004Z,99971.75
2022-11-08T21:37:15.431Z,99965.78
2022-11-08T21:39:43.802Z,99964.94
2022-11-08T21:42:12.242Z,99969.22
2022-11-08T21:44:40.565Z,99966.66
2022-11-08T21:47:08.942Z,99964.97
2022-11-08T21:49:38.623Z,99964.13
2022-11-08T21:52:07.002Z,99967.50
2022-11-08T21:54:35.297Z,99967.53
2022-11-08T21:57:03.671Z,99964.13
2022-11-08T21:59:32.005Z,99968.38
2022-11-08T22:02:00.283Z,99964.97
2022-11-08T22:04:28.542Z,99962.44
2022-11-08T22:06:58.311Z,99959.84
2022-11-08T22:09:26.705Z,99954.75
2022-11-08T22:11:55.091Z,99967.50
2022-11-08T22:14:23.374Z,99966.66
2022-11-08T22:16:51.741Z,99961.53
2022-11-08T22:19:19.996Z,99957.28
2022-11-08T22:21:48.346Z,99957.31
2022-11-08T22:24:20.602Z,99960.69
2022-11-08T22:26:49.523Z,99960.72
2022-11-08T22:29:18.234Z,99961.56
2022-11-08T22:31:47.319Z,99962.41
2022-11-08T22:34:16.101Z,99959.00
2022-11-08T22:36:46.182Z,99958.16
2022-11-08T22:39:15.218Z,99959.84
2022-11-08T22:41:45.432Z,99953.91
2022-11-08T22:44:13.956Z,99957.31
2022-11-08T22:46:42.497Z,99954.75
2022-11-08T22:49:11.654Z,99953.91
2022-11-08T22:51:40.379Z,99948.78
2022-11-08T22:54:09.385Z,99950.47
2022-11-08T22:56:38.373Z,99954.75
2022-11-08T22:59:08.544Z,99953.88
2022-11-08T23:01:36.914Z,99947.06
2022-11-08T23:04:05.233Z,99950.47
2022-11-08T23:06:33.682Z,99948.75
2022-11-08T23:09:01.916Z,99951.34
2022-11-08T23:11:41.795Z,99956.44
2022-11-08T23:14:21.915Z,99949.59
2022-11-08T23:16:50.375Z,99953.88
2022-11-08T23:19:29.717Z,99950.47
2022-11-08T23:22:08.177Z,99944.50
2022-11-08T23:24:36.566Z,99940.22
2022-11-08T23:27:15.467Z,99942.81
2022-11-08T23:30:02.202Z,99944.50
2022-11-08T23:32:30.616Z,99946.22
2022-11-08T23:34:58.944Z,99938.53
2022-11-08T23:37:27.585Z,99947.91
2022-11-08T23:40:05.905Z,99950.47
2022-11-08T23:42:44.177Z,99948.75
2022-11-08T23:45:14.356Z,99953.00
2022-11-08T23:47:42.665Z,99947.91
2022-11-08T23:50:11.557Z,99958.09
2022-11-08T23:52:39.934Z,99950.47
2022-11-08T23:55:08.886Z,99953.03
2022-11-08T23:57:37.326Z,99943.66
